createdAt,value
2023-03-11T00:00:14.475Z,2.30
2023-03-11T00:02:41.742Z,2.30
2023-03-11T00:05:09.766Z,2.60
2023-03-11T00:07:37.775Z,1.65
2023-03-11T00:10:05.222Z,1.90
2023-03-11T00:12:32.380Z,1.57
2023-03-11T00:14:59.344Z,1.85
2023-03-11T00:17:26.605Z,1.60
2023-03-11T00:19:53.899Z,1.38
2023-03-11T00:22:21.116Z,1.52
2023-03-11T00:24:48.360Z,1.50
2023-03-11T00:27:15.629Z,1.42
2023-03-11T00:29:42.940Z,1.70
2023-03-11T00:32:10.302Z,1.27
2023-03-11T00:34:37.594Z,1.33
2023-03-11T00:37:04.929Z,1.33
2023-03-11T00:39:32.153Z,1.67
2023-03-11T00:41:59.021Z,1.38
2023-03-11T00:44:26.607Z,1.75
2023-03-11T00:46:53.392Z,1.50
2023-03-11T00:49:20.290Z,1.80
2023-03-11T00:51:47.507Z,1.50
2023-03-11T00:54:15.459Z,1.40
2023-03-11T00:56:43.023Z,1.42
2023-03-11T00:59:11.433Z,1.90
2023-03-11T01:01:38.847Z,1.70
2023-03-11T01:04:06.328Z,1.40
2023-03-11T01:06:44.821Z,1.50
2023-03-11T01:09:12.995Z,1.70
2023-03-11T01:11:40.352Z,1.48
2023-03-11T01:14:08.967Z,1.50
2023-03-11T01:16:35.781Z,2.13
2023-03-11T01:19:03.542Z,1.40
2023-03-11T01:21:30.912Z,1.50
2023-03-11T01:23:58.150Z,1.45
2023-03-11T01:26:25.361Z,1.30
2023-03-11T01:28:56.301Z,1.70
2023-03-11T01:31:23.799Z,1.45
2023-03-11T01:33:51.387Z,1.30
2023-03-11T01:36:18.598Z,1.42
2023-03-11T01:38:45.775Z,1.60
2023-03-11T01:41:13.328Z,1.50
2023-03-11T01:43:44.416Z,2.03
2023-03-11T01:47:00.128Z,1.70
2023-03-11T01:49:33.549Z,1.48
2023-03-11T01:52:03.945Z,1.33
2023-03-11T01:54:33.568Z,1.20
2023-03-11T01:57:05.318Z,1.80
2023-03-11T01:59:47.550Z,1.25
2023-03-11T02:02:28.592Z,1.77
2023-03-11T02:04:56.070Z,1.70
2023-03-11T02:07:24.906Z,1.35
2023-03-11T02:09:52.497Z,1.92
2023-03-11T02:12:19.981Z,2.20
2023-03-11T02:14:53.490Z,1.80
2023-03-11T02:17:21.392Z,1.50
2023-03-11T02:19:54.419Z,1.30
2023-03-11T02:22:21.795Z,1.50
2023-03-11T02:25:21.160Z,1.67
2023-03-11T02:27:52.017Z,1.80
2023-03-11T02:30:22.666Z,1.40
2023-03-11T02:32:50.315Z,1.73
2023-03-11T02:35:18.469Z,1.70
2023-03-11T02:37:47.840Z,1.60
2023-03-11T02:40:23.892Z,1.95
2023-03-11T02:42:58.286Z,2.07
2023-03-11T02:45:26.856Z,2.80
2023-03-11T02:47:56.564Z,2.80
2023-03-11T02:50:28.322Z,2.80
2023-03-11T02:52:56.290Z,3.22
2023-03-11T02:55:23.591Z,3.10
2023-03-11T02:57:51.108Z,3.20
2023-03-11T03:00:18.660Z,3.10
2023-03-11T03:02:55.623Z,3.22
2023-03-11T03:05:23.568Z,2.70
2023-03-11T03:07:51.994Z,2.90
2023-03-11T03:10:20.770Z,3.20
2023-03-11T03:12:48.208Z,4.43
2023-03-11T03:15:16.063Z,5.15
2023-03-11T03:17:44.869Z,7.18
2023-03-11T03:20:13.906Z,6.83
2023-03-11T03:22:45.344Z,5.07
2023-03-11T03:25:15.550Z,2.78
2023-03-11T03:27:43.019Z,3.88
2023-03-11T03:30:11.130Z,6.10
2023-03-11T03:32:38.991Z,6.53
2023-03-11T03:35:09.705Z,4.03
2023-03-11T03:38:12.584Z,4.15
2023-03-11T03:40:41.077Z,3.22
2023-03-11T03:43:08.711Z,3.78
2023-03-11T03:45:37.505Z,3.60
2023-03-11T03:48:05.643Z,2.90
2023-03-11T03:50:39.918Z,3.28
2023-03-11T03:53:08.722Z,2.45
2023-03-11T03:55:36.080Z,2.80
2023-03-11T03:58:03.446Z,2.00
2023-03-11T04:00:34.409Z,2.42
2023-03-11T04:03:03.203Z,2.60
2023-03-11T04:06:28.804Z,2.22
2023-03-11T04:09:01.066Z,2.78
2023-03-11T04:11:32.913Z,2.77
2023-03-11T04:14:02.563Z,2.58
2023-03-11T04:16:31.323Z,2.60
2023-03-11T04:19:05.636Z,2.10
2023-03-11T04:21:33.214Z,2.07
2023-03-11T04:24:00.833Z,2.28
2023-03-11T04:26:32.892Z,2.00
2023-03-11T04:29:00.520Z,2.33
2023-03-11T04:31:30.973Z,1.77
2023-03-11T04:34:00.653Z,1.90
2023-03-11T04:36:28.190Z,1.70
2023-03-11T04:38:57.842Z,1.80
2023-03-11T04:41:26.614Z,2.03
2023-03-11T04:43:54.754Z,1.90
2023-03-11T04:46:22.611Z,2.63
2023-03-11T04:48:50.172Z,1.40
2023-03-11T04:51:17.982Z,1.85
2023-03-11T04:53:45.837Z,1.70
2023-03-11T04:56:13.230Z,1.63
2023-03-11T04:58:41.090Z,1.45
2023-03-11T05:01:08.730Z,2.28
2023-03-11T05:03:35.641Z,1.67
2023-03-11T05:06:03.091Z,1.50
2023-03-11T05:08:30.993Z,1.80
2023-03-11T05:10:58.441Z,1.50
2023-03-11T05:13:26.110Z,1.90
2023-03-11T05:15:53.916Z,1.77
2023-03-11T05:18:21.583Z,1.98
2023-03-11T05:20:50.023Z,2.17
2023-03-11T05:23:19.045Z,1.92
2023-03-11T05:25:46.396Z,1.92
2023-03-11T05:28:13.630Z,1.80
2023-03-11T05:30:46.901Z,2.00
2023-03-11T05:33:14.340Z,1.80
2023-03-11T05:35:42.803Z,2.00
2023-03-11T05:38:10.496Z,1.77
2023-03-11T05:40:38.119Z,2.10
2023-03-11T05:43:05.465Z,1.70
2023-03-11T05:45:36.519Z,2.13
2023-03-11T05:48:03.758Z,1.73
2023-03-11T05:50:31.540Z,2.03
2023-03-11T05:52:58.813Z,1.90
2023-03-11T05:55:27.031Z,1.80
2023-03-11T05:57:54.875Z,1.75
2023-03-11T06:00:23.525Z,6.75
2023-03-11T06:02:53.425Z,5.85
2023-03-11T06:05:20.507Z,2.10
2023-03-11T06:07:49.537Z,2.40
2023-03-11T06:10:17.290Z,2.10
2023-03-11T06:12:44.215Z,2.60
2023-03-11T06:15:17.138Z,1.95
2023-03-11T06:17:45.061Z,2.10
2023-03-11T06:20:13.032Z,2.10
2023-03-11T06:22:41.035Z,2.00
2023-03-11T06:25:09.546Z,2.85
2023-03-11T06:27:38.250Z,7.50
2023-03-11T06:30:07.050Z,3.53
2023-03-11T06:32:40.622Z,2.40
2023-03-11T06:35:08.570Z,2.10
2023-03-11T06:37:38.974Z,2.17
2023-03-11T06:40:07.973Z,2.00
2023-03-11T06:42:35.593Z,2.42
2023-03-11T06:45:04.012Z,2.20
2023-03-11T06:47:31.477Z,3.13
2023-03-11T06:49:59.839Z,2.60
2023-03-11T06:52:27.588Z,2.50
2023-03-11T06:54:56.379Z,2.60
2023-03-11T06:57:23.793Z,2.50
2023-03-11T06:59:54.317Z,19.40
2023-03-11T07:02:22.215Z,5.28
2023-03-11T07:04:49.825Z,3.47
2023-03-11T07:07:18.640Z,2.85
2023-03-11T07:09:45.594Z,2.42
2023-03-11T07:12:14.892Z,2.67
2023-03-11T07:14:41.935Z,5.55
2023-03-11T07:17:08.769Z,10.00
2023-03-11T07:19:45.576Z,7.20
2023-03-11T07:22:13.061Z,6.80
2023-03-11T07:24:40.334Z,7.88
2023-03-11T07:27:07.560Z,6.68
2023-03-11T07:29:34.392Z,6.23
2023-03-11T07:32:01.703Z,6.13
2023-03-11T07:34:28.988Z,5.43
2023-03-11T07:36:56.245Z,5.13
2023-03-11T07:39:23.406Z,4.25
2023-03-11T07:41:50.645Z,4.70
2023-03-11T07:44:18.335Z,3.47
2023-03-11T07:46:46.098Z,4.82
2023-03-11T07:49:13.975Z,5.88
2023-03-11T07:51:42.454Z,12.07
2023-03-11T07:54:11.671Z,6.00
2023-03-11T07:56:38.951Z,4.18
2023-03-11T07:59:06.329Z,4.28
2023-03-11T08:01:36.826Z,3.67
2023-03-11T08:04:06.339Z,3.33
2023-03-11T08:06:34.368Z,3.73
2023-03-11T08:09:03.365Z,3.10
2023-03-11T08:11:31.372Z,3.33
2023-03-11T08:13:58.544Z,2.72
2023-03-11T08:16:26.676Z,3.35
2023-03-11T08:18:53.656Z,2.83
2023-03-11T08:21:23.842Z,2.70
2023-03-11T08:23:51.657Z,2.95
2023-03-11T08:26:21.970Z,3.03
2023-03-11T08:28:49.983Z,2.95
2023-03-11T08:31:19.884Z,3.33
2023-03-11T08:33:49.933Z,2.70
2023-03-11T08:36:17.662Z,1.98
2023-03-11T08:38:44.786Z,2.20
2023-03-11T08:41:11.915Z,2.85
2023-03-11T08:43:39.288Z,2.57
2023-03-11T08:46:07.172Z,2.20
2023-03-11T08:48:36.540Z,2.95
2023-03-11T08:51:12.806Z,2.70
2023-03-11T08:53:40.411Z,2.67
2023-03-11T08:56:08.026Z,2.37
2023-03-11T08:58:35.518Z,2.55
2023-03-11T09:01:03.066Z,2.25
2023-03-11T09:03:35.290Z,1.83
2023-03-11T09:06:04.510Z,2.30
2023-03-11T09:08:31.363Z,2.10
2023-03-11T09:10:58.554Z,2.20
2023-03-11T09:13:26.012Z,2.22
2023-03-11T09:15:53.762Z,2.33
2023-03-11T09:18:20.995Z,2.92
2023-03-11T09:20:48.025Z,2.30
2023-03-11T09:23:17.380Z,2.58
2023-03-11T09:25:44.642Z,2.47
2023-03-11T09:28:12.026Z,2.50
2023-03-11T09:30:39.597Z,2.03
2023-03-11T09:33:06.841Z,1.77
2023-03-11T09:35:34.112Z,1.90
2023-03-11T09:38:01.851Z,2.10
2023-03-11T09:40:42.933Z,2.13
2023-03-11T09:43:48.650Z,2.40
2023-03-11T09:46:46.508Z,2.10
2023-03-11T09:49:33.680Z,2.10
2023-03-11T09:52:21.549Z,2.00
2023-03-11T09:54:55.100Z,1.90
2023-03-11T09:57:34.701Z,2.03
2023-03-11T10:00:05.542Z,2.07
2023-03-11T10:02:40.655Z,1.80
2023-03-11T10:05:20.296Z,1.90
2023-03-11T10:07:57.342Z,2.40
2023-03-11T10:10:26.187Z,2.50
2023-03-11T10:13:13.364Z,1.80
2023-03-11T10:15:59.632Z,1.65
2023-03-11T10:18:26.908Z,1.90
2023-03-11T10:21:44.718Z,2.03
2023-03-11T10:24:21.717Z,1.80
2023-03-11T10:26:52.903Z,1.90
2023-03-11T10:29:47.932Z,1.80
2023-03-11T10:32:28.916Z,2.00
2023-03-11T10:35:11.155Z,1.90
2023-03-11T10:37:49.691Z,1.80
2023-03-11T10:40:39.482Z,1.60
2023-03-11T10:43:13.118Z,1.60
2023-03-11T10:45:44.734Z,1.67
2023-03-11T10:48:16.975Z,1.70
2023-03-11T10:50:52.654Z,1.80
2023-03-11T10:53:21.061Z,1.60
2023-03-11T10:55:53.974Z,2.20
2023-03-11T10:58:24.214Z,2.40
2023-03-11T11:01:02.181Z,1.90
2023-03-11T11:03:29.649Z,2.20
2023-03-11T11:06:10.559Z,1.97
2023-03-11T11:08:37.872Z,2.17
2023-03-11T11:11:05.583Z,1.90
2023-03-11T11:13:34.835Z,1.90
2023-03-11T11:16:02.159Z,1.92
2023-03-11T11:18:43.721Z,2.07
2023-03-11T11:21:28.433Z,2.45
2023-03-11T11:24:16.641Z,2.88
2023-03-11T11:26:44.172Z,2.22
2023-03-11T11:29:11.051Z,2.30
2023-03-11T11:31:40.130Z,2.20
2023-03-11T11:34:34.702Z,2.05
2023-03-11T11:37:04.325Z,2.20
2023-03-11T11:39:40.271Z,2.05
2023-03-11T11:42:11.660Z,2.28
2023-03-11T11:44:38.679Z,1.70
2023-03-11T11:47:21.593Z,1.67
2023-03-11T11:50:14.427Z,2.03
2023-03-11T11:52:47.355Z,2.13
2023-03-11T11:55:24.882Z,2.40
2023-03-11T11:57:53.510Z,1.97
2023-03-11T12:00:31.022Z,2.38
2023-03-11T12:03:36.683Z,2.10
2023-03-11T12:06:28.123Z,2.20
2023-03-11T12:09:10.177Z,2.90
2023-03-11T12:11:49.753Z,2.10
2023-03-11T12:14:34.010Z,2.25
2023-03-11T12:17:04.242Z,2.40
2023-03-11T12:19:41.702Z,2.50
2023-03-11T12:22:47.026Z,2.45
2023-03-11T12:25:14.437Z,2.97
2023-03-11T12:27:46.959Z,2.47
2023-03-11T12:30:18.395Z,2.47
2023-03-11T12:33:01.756Z,2.58
2023-03-11T12:35:34.611Z,2.50
2023-03-11T12:38:32.972Z,2.50
2023-03-11T12:41:28.931Z,2.60
2023-03-11T12:44:01.143Z,2.40
2023-03-11T12:46:59.222Z,2.40
2023-03-11T12:49:30.542Z,2.47
2023-03-11T12:52:09.307Z,2.20
2023-03-11T12:54:39.539Z,2.20
2023-03-11T12:57:18.809Z,2.42
2023-03-11T12:59:46.031Z,2.20
2023-03-11T13:02:40.316Z,2.38
2023-03-11T13:05:37.726Z,2.03
2023-03-11T13:08:13.716Z,2.10
2023-03-11T13:10:43.492Z,2.58
2023-03-11T13:13:25.375Z,2.58
2023-03-11T13:15:53.181Z,2.67
2023-03-11T13:18:32.882Z,2.20
2023-03-11T13:21:01.737Z,2.30
2023-03-11T13:23:37.983Z,2.38
2023-03-11T13:26:13.366Z,2.33
2023-03-11T13:29:07.547Z,2.22
2023-03-11T13:32:12.544Z,2.20
2023-03-11T13:35:04.762Z,2.15
2023-03-11T13:37:53.374Z,2.60
2023-03-11T13:40:52.782Z,2.80
2023-03-11T13:43:25.360Z,2.63
2023-03-11T13:46:00.318Z,2.77
2023-03-11T13:48:28.181Z,2.15
2023-03-11T13:51:06.695Z,2.25
2023-03-11T13:53:50.089Z,1.95
2023-03-11T13:56:49.212Z,2.47
2023-03-11T13:59:30.037Z,2.10
2023-03-11T14:02:00.520Z,1.92
2023-03-11T14:04:33.268Z,2.30
2023-03-11T14:07:00.794Z,2.63
2023-03-11T14:09:28.793Z,2.80
2023-03-11T14:12:04.704Z,2.60
2023-03-11T14:14:43.543Z,2.72
2023-03-11T14:17:18.564Z,2.47
2023-03-11T14:20:10.542Z,2.80
2023-03-11T14:22:39.033Z,3.10
2023-03-11T14:25:09.813Z,2.70
2023-03-11T14:27:39.909Z,2.70
2023-03-11T14:30:07.413Z,2.42
2023-03-11T14:32:35.207Z,2.20
2023-03-11T14:35:02.799Z,2.25
2023-03-11T14:37:36.593Z,1.77
2023-03-11T14:40:05.079Z,1.70
2023-03-11T14:42:32.233Z,2.05
2023-03-11T14:45:02.871Z,1.77
2023-03-11T14:47:35.352Z,2.35
2023-03-11T14:50:05.606Z,2.50
2023-03-11T14:52:42.027Z,2.42
2023-03-11T14:55:21.108Z,2.50
2023-03-11T14:57:59.470Z,2.30
2023-03-11T15:00:30.154Z,2.00
2023-03-11T15:03:29.032Z,2.27
2023-03-11T15:06:03.391Z,2.20
2023-03-11T15:08:44.340Z,2.28
2023-03-11T15:11:11.155Z,2.30
2023-03-11T15:13:40.567Z,2.25
2023-03-11T15:16:21.792Z,1.80
2023-03-11T15:18:48.792Z,1.80
2023-03-11T15:21:18.794Z,2.05
2023-03-11T15:23:52.549Z,3.00
2023-03-11T15:26:23.432Z,4.00
2023-03-11T15:28:56.717Z,3.10
2023-03-11T15:31:23.969Z,1.92
2023-03-11T15:33:54.433Z,2.10
2023-03-11T15:36:47.315Z,2.47
2023-03-11T15:39:16.091Z,2.70
2023-03-11T15:41:47.826Z,2.60
2023-03-11T15:44:25.701Z,2.40
2023-03-11T15:46:53.208Z,2.30
2023-03-11T15:49:20.517Z,2.55
2023-03-11T15:51:47.762Z,2.40
2023-03-11T15:54:14.950Z,2.10
2023-03-11T15:56:42.709Z,2.30
2023-03-11T15:59:18.656Z,2.60
2023-03-11T16:01:47.328Z,2.30
2023-03-11T16:04:16.555Z,2.03
2023-03-11T16:06:44.235Z,2.10
2023-03-11T16:09:11.821Z,2.50
2023-03-11T16:11:39.905Z,2.80
2023-03-11T16:14:13.303Z,3.20
2023-03-11T16:16:40.258Z,3.03
2023-03-11T16:19:07.225Z,2.80
2023-03-11T16:21:38.452Z,2.47
2023-03-11T16:24:06.382Z,2.40
2023-03-11T16:26:35.190Z,2.50
2023-03-11T16:29:16.526Z,2.55
2023-03-11T16:31:45.540Z,2.40
2023-03-11T16:34:12.387Z,2.80
2023-03-11T16:36:39.186Z,2.40
2023-03-11T16:39:06.104Z,2.10
2023-03-11T16:41:44.637Z,2.47
2023-03-11T16:44:11.874Z,2.00
2023-03-11T16:46:39.409Z,2.30
2023-03-11T16:49:06.514Z,2.22
2023-03-11T16:51:33.809Z,2.25
2023-03-11T16:54:01.114Z,2.20
2023-03-11T16:56:28.423Z,21.03
2023-03-11T16:58:55.695Z,3.90
2023-03-11T17:01:22.790Z,4.05
2023-03-11T17:03:50.842Z,4.72
2023-03-11T17:06:18.003Z,3.60
2023-03-11T17:08:49.180Z,3.27
2023-03-11T17:11:24.593Z,3.63
2023-03-11T17:13:51.718Z,3.70
2023-03-11T17:16:19.091Z,3.78
2023-03-11T17:18:46.461Z,3.17
2023-03-11T17:21:15.255Z,3.90
2023-03-11T17:23:42.763Z,3.30
2023-03-11T17:26:17.507Z,3.95
2023-03-11T17:28:44.910Z,3.45
2023-03-11T17:31:14.220Z,3.53
2023-03-11T17:33:41.856Z,7.57
2023-03-11T17:36:12.568Z,6.15
2023-03-11T17:38:39.609Z,4.60
2023-03-11T17:41:11.407Z,5.57
2023-03-11T17:43:38.964Z,4.47
2023-03-11T17:46:14.386Z,5.10
2023-03-11T17:48:46.268Z,4.38
2023-03-11T17:51:21.698Z,6.82
2023-03-11T17:53:49.385Z,7.57
2023-03-11T17:56:18.460Z,9.25
2023-03-11T17:58:45.729Z,8.43
2023-03-11T18:01:15.787Z,9.15
2023-03-11T18:03:42.736Z,9.85
2023-03-11T18:06:10.269Z,9.95
2023-03-11T18:08:37.659Z,9.80
2023-03-11T18:11:07.143Z,10.47
2023-03-11T18:13:34.990Z,10.48
2023-03-11T18:16:16.210Z,11.40
2023-03-11T18:18:44.006Z,11.18
2023-03-11T18:21:23.398Z,13.88
2023-03-11T18:23:53.313Z,18.90
2023-03-11T18:26:20.970Z,21.40
2023-03-11T18:28:48.237Z,21.52
2023-03-11T18:31:21.870Z,22.10
2023-03-11T18:33:51.637Z,38.58
2023-03-11T18:36:24.205Z,39.63
2023-03-11T18:38:53.231Z,15.00
2023-03-11T18:41:20.975Z,12.73
2023-03-11T18:43:51.539Z,12.25
2023-03-11T18:46:18.884Z,10.68
2023-03-11T18:48:46.499Z,10.27
2023-03-11T18:51:14.069Z,8.23
2023-03-11T18:53:42.962Z,7.20
2023-03-11T18:56:13.447Z,5.88
2023-03-11T18:58:40.659Z,5.90
2023-03-11T19:01:14.140Z,6.27
2023-03-11T19:03:42.482Z,8.10
2023-03-11T19:06:11.070Z,11.68
2023-03-11T19:08:38.462Z,13.27
2023-03-11T19:11:09.231Z,15.27
2023-03-11T19:13:46.576Z,14.80
2023-03-11T19:16:16.285Z,13.20
2023-03-11T19:18:43.197Z,12.93
2023-03-11T19:21:12.173Z,16.55
2023-03-11T19:23:39.244Z,19.55
2023-03-11T19:26:06.976Z,16.43
2023-03-11T19:28:34.375Z,15.35
2023-03-11T19:31:01.747Z,14.27
2023-03-11T19:33:29.259Z,12.75
2023-03-11T19:35:58.485Z,12.82
2023-03-11T19:38:27.181Z,11.80
2023-03-11T19:40:59.737Z,11.40
2023-03-11T19:43:27.414Z,14.38
2023-03-11T19:45:54.885Z,13.38
2023-03-11T19:48:22.132Z,17.40
2023-03-11T19:50:53.183Z,21.00
2023-03-11T19:53:21.614Z,19.85
2023-03-11T19:55:52.438Z,19.10
2023-03-11T19:58:20.557Z,15.02
2023-03-11T20:00:48.257Z,11.75
2023-03-11T20:03:15.703Z,10.63
2023-03-11T20:05:44.963Z,10.68
2023-03-11T20:08:14.262Z,16.25
2023-03-11T20:10:43.117Z,15.68
2023-03-11T20:13:10.486Z,15.40
2023-03-11T20:15:38.013Z,16.93
2023-03-11T20:18:06.228Z,19.38
2023-03-11T20:20:33.896Z,14.73
2023-03-11T20:23:01.991Z,14.32
2023-03-11T20:25:32.904Z,14.02
2023-03-11T20:28:00.640Z,13.97
2023-03-11T20:30:28.529Z,13.57
2023-03-11T20:32:56.160Z,13.70
2023-03-11T20:35:24.144Z,11.65
2023-03-11T20:37:51.037Z,12.25
2023-03-11T20:40:18.884Z,11.83
2023-03-11T20:42:47.202Z,11.63
2023-03-11T20:45:16.193Z,11.43
2023-03-11T20:47:44.592Z,11.50
2023-03-11T20:50:12.964Z,11.00
2023-03-11T20:52:40.607Z,11.53
2023-03-11T20:55:10.058Z,11.10
2023-03-11T20:57:38.367Z,11.07
2023-03-11T21:00:11.807Z,11.40
2023-03-11T21:02:40.770Z,10.38
2023-03-11T21:05:09.602Z,9.20
2023-03-11T21:07:37.029Z,8.07
2023-03-11T21:10:06.249Z,8.00
2023-03-11T21:12:33.514Z,8.27
2023-03-11T21:15:00.614Z,8.20
2023-03-11T21:17:27.906Z,8.60
2023-03-11T21:19:55.336Z,8.45
2023-03-11T21:22:22.193Z,8.73
2023-03-11T21:24:53.066Z,8.98
2023-03-11T21:27:25.821Z,9.32
2023-03-11T21:29:53.792Z,9.33
2023-03-11T21:32:21.473Z,11.02
2023-03-11T21:34:48.586Z,11.93
2023-03-11T21:37:15.792Z,12.55
2023-03-11T21:39:42.966Z,12.55
2023-03-11T21:42:10.176Z,11.30
2023-03-11T21:44:37.515Z,10.32
2023-03-11T21:47:05.047Z,9.77
2023-03-11T21:49:32.297Z,9.32
2023-03-11T21:52:02.111Z,9.57
2023-03-11T21:54:29.791Z,10.13
2023-03-11T21:56:57.498Z,9.15
2023-03-11T21:59:25.725Z,9.20
2023-03-11T22:01:53.454Z,11.60
2023-03-11T22:04:20.993Z,8.35
2023-03-11T22:06:48.060Z,9.53
2023-03-11T22:09:15.692Z,8.98
2023-03-11T22:11:43.011Z,10.55
2023-03-11T22:14:09.818Z,12.23
2023-03-11T22:16:37.241Z,10.70
2023-03-11T22:19:06.159Z,10.10
2023-03-11T22:21:33.583Z,10.50
2023-03-11T22:24:00.824Z,9.80
2023-03-11T22:26:28.118Z,10.20
2023-03-11T22:28:54.935Z,9.27
2023-03-11T22:31:22.683Z,9.50
2023-03-11T22:33:50.010Z,8.90
2023-03-11T22:36:17.352Z,8.23
2023-03-11T22:38:44.998Z,9.15
2023-03-11T22:41:13.644Z,8.68
2023-03-11T22:43:41.138Z,8.40
2023-03-11T22:46:08.495Z,7.00
2023-03-11T22:48:36.294Z,8.55
2023-03-11T22:51:03.690Z,8.27
2023-03-11T22:53:30.959Z,7.65
2023-03-11T22:55:58.408Z,7.80
2023-03-11T22:58:25.577Z,8.25
2023-03-11T23:00:52.784Z,7.90
2023-03-11T23:03:20.165Z,8.15
2023-03-11T23:05:47.441Z,8.65
2023-03-11T23:08:16.139Z,8.20
2023-03-11T23:10:47.019Z,8.43
2023-03-11T23:13:14.536Z,7.13
2023-03-11T23:15:43.630Z,7.20
2023-03-11T23:18:11.129Z,6.82
2023-03-11T23:20:40.892Z,6.83
2023-03-11T23:23:08.732Z,7.07
2023-03-11T23:25:36.355Z,6.75
2023-03-11T23:28:04.699Z,6.25
2023-03-11T23:30:32.378Z,6.45
2023-03-11T23:33:02.452Z,6.03
2023-03-11T23:35:29.688Z,5.30
2023-03-11T23:37:57.098Z,6.07
2023-03-11T23:40:24.388Z,5.78
2023-03-11T23:42:51.482Z,5.55
2023-03-11T23:45:18.759Z,6.03
2023-03-11T23:47:45.584Z,5.45
2023-03-11T23:50:13.014Z,5.30
2023-03-11T23:52:40.253Z,6.15
2023-03-11T23:55:07.861Z,6.38
2023-03-11T23:57:38.157Z,5.33
